sensor_id;sensor_type;location;lat;lon;timestamp;P1;P2;P0
50587;PMS7003;70782;50.514;30.816;2024-01-30T00:00:22;82.30;63.20;40.50
50587;PMS7003;70782;50.514;30.816;2024-01-30T00:01:24;82.00;63.10;38.70
50587;PMS7003;70782;50.514;30.816;2024-01-30T00:02:27;82.50;63.50;39.90
50587;PMS7003;70782;50.514;30.816;2024-01-30T00:03:29;82.40;64.00;41.20
50587;PMS7003;70782;50.514;30.816;2024-01-30T00:04:32;81.30;63.30;39.20
50587;PMS7003;70782;50.514;30.816;2024-01-30T00:05:34;81.50;63.00;38.00
50587;PMS7003;70782;50.514;30.816;2024-01-30T00:06:38;79.30;62.70;39.10
50587;PMS7003;70782;50.514;30.816;2024-01-30T00:07:40;81.20;63.60;38.30
50587;PMS7003;70782;50.514;30.816;2024-01-30T00:08:43;78.20;60.90;37.30
50587;PMS7003;70782;50.514;30.816;2024-01-30T00:10:55;75.70;58.20;36.10
50587;PMS7003;70782;50.514;30.816;2024-01-30T00:11:58;74.60;58.50;36.60
50587;PMS7003;70782;50.514;30.816;2024-01-30T00:13:00;76.70;59.00;36.50
50587;PMS7003;70782;50.514;30.816;2024-01-30T00:14:03;73.50;57.70;36.50
50587;PMS7003;70782;50.514;30.816;2024-01-30T00:15:06;74.30;58.80;37.00
50587;PMS7003;70782;50.514;30.816;2024-01-30T00:16:19;75.50;58.80;36.40
50587;PMS7003;70782;50.514;30.816;2024-01-30T00:17:23;75.50;58.00;37.60
50587;PMS7003;70782;50.514;30.816;2024-01-30T00:18:25;73.30;56.70;35.50
50587;PMS7003;70782;50.514;30.816;2024-01-30T00:19:28;74.00;57.60;36.30
50587;PMS7003;70782;50.514;30.816;2024-01-30T00:20:31;74.60;58.80;36.40
50587;PMS7003;70782;50.514;30.816;2024-01-30T00:21:33;73.70;58.90;36.00
50587;PMS7003;70782;50.514;30.816;2024-01-30T00:22:36;76.40;59.40;37.10
50587;PMS7003;70782;50.514;30.816;2024-01-30T00:23:38;65.40;52.20;33.40
50587;PMS7003;70782;50.514;30.816;2024-01-30T00:24:40;74.50;57.90;34.20
50587;PMS7003;70782;50.514;30.816;2024-01-30T00:25:43;76.40;60.50;37.50
50587;PMS7003;70782;50.514;30.816;2024-01-30T00:26:46;81.60;64.10;38.80
50587;PMS7003;70782;50.514;30.816;2024-01-30T00:27:48;67.40;53.70;29.60
50587;PMS7003;70782;50.514;30.816;2024-01-30T00:28:51;77.10;59.30;36.20
50587;PMS7003;70782;50.514;30.816;2024-01-30T00:29:53;77.70;60.10;35.10
50587;PMS7003;70782;50.514;30.816;2024-01-30T00:30:56;77.73;60.64;37.00
50587;PMS7003;70782;50.514;30.816;2024-01-30T00:31:59;76.00;58.70;37.30
50587;PMS7003;70782;50.514;30.816;2024-01-30T00:33:01;75.30;59.00;36.20
50587;PMS7003;70782;50.514;30.816;2024-01-30T00:34:04;70.30;57.70;35.80
50587;PMS7003;70782;50.514;30.816;2024-01-30T00:35:06;76.00;60.20;37.90
50587;PMS7003;70782;50.514;30.816;2024-01-30T00:36:10;74.40;59.70;37.20
50587;PMS7003;70782;50.514;30.816;2024-01-30T00:37:12;70.70;56.20;36.30
50587;PMS7003;70782;50.514;30.816;2024-01-30T00:38:15;74.60;59.00;35.70
50587;PMS7003;70782;50.514;30.816;2024-01-30T00:39:17;72.70;59.10;36.30
50587;PMS7003;70782;50.514;30.816;2024-01-30T00:40:21;71.50;58.20;36.50
50587;PMS7003;70782;50.514;30.816;2024-01-30T00:41:23;75.70;56.90;35.70
50587;PMS7003;70782;50.514;30.816;2024-01-30T00:42:26;69.00;54.60;34.90
50587;PMS7003;70782;50.514;30.816;2024-01-30T00:43:28;68.90;55.80;35.00
50587;PMS7003;70782;50.514;30.816;2024-01-30T00:44:30;68.60;55.10;34.30
50587;PMS7003;70782;50.514;30.816;2024-01-30T00:45:33;67.10;54.00;34.20
50587;PMS7003;70782;50.514;30.816;2024-01-30T00:46:36;66.64;53.09;32.64
50587;PMS7003;70782;50.514;30.816;2024-01-30T00:47:38;64.40;53.10;34.00
50587;PMS7003;70782;50.514;30.816;2024-01-30T00:48:40;65.11;49.78;30.89
50587;PMS7003;70782;50.514;30.816;2024-01-30T00:49:43;65.20;50.20;31.00
50587;PMS7003;70782;50.514;30.816;2024-01-30T00:50:45;65.60;53.10;33.80
50587;PMS7003;70782;50.514;30.816;2024-01-30T00:51:48;61.90;51.10;31.70
50587;PMS7003;70782;50.514;30.816;2024-01-30T00:52:50;63.30;50.10;32.10
50587;PMS7003;70782;50.514;30.816;2024-01-30T00:53:53;63.20;49.50;31.30
50587;PMS7003;70782;50.514;30.816;2024-01-30T00:54:55;62.70;49.40;33.00
50587;PMS7003;70782;50.514;30.816;2024-01-30T00:55:58;66.00;52.70;34.30
50587;PMS7003;70782;50.514;30.816;2024-01-30T00:57:00;68.50;54.00;34.80
50587;PMS7003;70782;50.514;30.816;2024-01-30T00:58:04;70.50;54.70;34.10
50587;PMS7003;70782;50.514;30.816;2024-01-30T00:59:06;67.00;54.00;33.70
50587;PMS7003;70782;50.514;30.816;2024-01-30T01:00:10;65.70;53.60;34.90
50587;PMS7003;70782;50.514;30.816;2024-01-30T01:01:14;65.20;52.60;33.40
50587;PMS7003;70782;50.514;30.816;2024-01-30T01:02:16;59.20;48.80;32.70
50587;PMS7003;70782;50.514;30.816;2024-01-30T01:03:19;68.50;55.00;33.90
50587;PMS7003;70782;50.514;30.816;2024-01-30T01:04:21;70.18;54.73;33.09
50587;PMS7003;70782;50.514;30.816;2024-01-30T01:05:24;66.40;53.80;34.90
50587;PMS7003;70782;50.514;30.816;2024-01-30T01:06:26;62.80;52.20;33.20
50587;PMS7003;70782;50.514;30.816;2024-01-30T01:07:29;70.30;53.70;34.60
50587;PMS7003;70782;50.514;30.816;2024-01-30T01:08:31;67.50;54.00;34.80
50587;PMS7003;70782;50.514;30.816;2024-01-30T01:09:34;65.70;54.10;34.80
50587;PMS7003;70782;50.514;30.816;2024-01-30T01:10:36;71.20;56.80;35.30
50587;PMS7003;70782;50.514;30.816;2024-01-30T01:11:39;70.90;56.80;35.50
50587;PMS7003;70782;50.514;30.816;2024-01-30T01:12:42;68.64;55.55;35.00
50587;PMS7003;70782;50.514;30.816;2024-01-30T01:13:45;69.70;56.50;35.00
50587;PMS7003;70782;50.514;30.816;2024-01-30T01:14:47;70.00;54.80;33.90
50587;PMS7003;70782;50.514;30.816;2024-01-30T01:15:49;66.40;54.40;34.30
50587;PMS7003;70782;50.514;30.816;2024-01-30T01:16:52;69.10;54.70;34.00
50587;PMS7003;70782;50.514;30.816;2024-01-30T01:17:55;64.00;52.00;34.40
50587;PMS7003;70782;50.514;30.816;2024-01-30T01:18:57;62.30;52.10;32.50
50587;PMS7003;70782;50.514;30.816;2024-01-30T01:19:59;55.70;46.70;32.30
50587;PMS7003;70782;50.514;30.816;2024-01-30T01:21:02;63.80;52.30;33.50
50587;PMS7003;70782;50.514;30.816;2024-01-30T01:22:04;63.40;48.70;31.50
50587;PMS7003;70782;50.514;30.816;2024-01-30T01:23:07;59.50;48.30;31.80
50587;PMS7003;70782;50.514;30.816;2024-01-30T01:24:09;59.00;47.30;30.70
50587;PMS7003;70782;50.514;30.816;2024-01-30T01:25:12;61.60;50.60;32.20
50587;PMS7003;70782;50.514;30.816;2024-01-30T01:26:16;62.40;50.90;31.40
50587;PMS7003;70782;50.514;30.816;2024-01-30T01:27:18;30.30;22.80;9.80
50587;PMS7003;70782;50.514;30.816;2024-01-30T01:28:21;66.00;53.50;32.60
50587;PMS7003;70782;50.514;30.816;2024-01-30T01:29:24;63.50;50.20;31.50
50587;PMS7003;70782;50.514;30.816;2024-01-30T01:30:26;63.90;50.50;30.40
50587;PMS7003;70782;50.514;30.816;2024-01-30T01:31:29;63.30;51.10;31.40
50587;PMS7003;70782;50.514;30.816;2024-01-30T01:32:31;59.70;49.10;29.90
50587;PMS7003;70782;50.514;30.816;2024-01-30T01:33:34;59.30;49.20;31.30
50587;PMS7003;70782;50.514;30.816;2024-01-30T01:34:36;58.30;49.00;29.80
50587;PMS7003;70782;50.514;30.816;2024-01-30T01:35:39;60.30;48.60;31.90
50587;PMS7003;70782;50.514;30.816;2024-01-30T01:36:41;60.80;49.40;31.10
50587;PMS7003;70782;50.514;30.816;2024-01-30T01:37:44;63.70;50.30;32.60
50587;PMS7003;70782;50.514;30.816;2024-01-30T01:38:46;51.60;43.50;26.60
50587;PMS7003;70782;50.514;30.816;2024-01-30T01:39:49;63.10;51.10;32.60
50587;PMS7003;70782;50.514;30.816;2024-01-30T01:40:51;62.10;50.30;32.80
50587;PMS7003;70782;50.514;30.816;2024-01-30T01:41:54;64.10;50.40;31.60
50587;PMS7003;70782;50.514;30.816;2024-01-30T01:42:56;63.70;49.10;31.50
50587;PMS7003;70782;50.514;30.816;2024-01-30T01:43:59;63.30;51.40;32.50
50587;PMS7003;70782;50.514;30.816;2024-01-30T01:45:01;68.70;53.60;33.10
50587;PMS7003;70782;50.514;30.816;2024-01-30T01:46:04;69.60;56.60;34.60
50587;PMS7003;70782;50.514;30.816;2024-01-30T01:47:08;70.60;55.10;34.80
50587;PMS7003;70782;50.514;30.816;2024-01-30T01:48:10;73.40;55.90;35.20
50587;PMS7003;70782;50.514;30.816;2024-01-30T01:49:13;69.70;54.70;35.20
50587;PMS7003;70782;50.514;30.816;2024-01-30T01:50:18;64.60;52.60;34.10
50587;PMS7003;70782;50.514;30.816;2024-01-30T01:51:21;63.70;53.50;32.90
50587;PMS7003;70782;50.514;30.816;2024-01-30T01:52:24;65.18;53.64;34.73
50587;PMS7003;70782;50.514;30.816;2024-01-30T01:53:26;70.70;54.40;34.90
50587;PMS7003;70782;50.514;30.816;2024-01-30T01:54:29;69.10;56.90;35.70
50587;PMS7003;70782;50.514;30.816;2024-01-30T01:55:33;64.40;52.80;33.20
50587;PMS7003;70782;50.514;30.816;2024-01-30T01:56:37;68.70;55.30;34.70
50587;PMS7003;70782;50.514;30.816;2024-01-30T01:57:40;63.80;52.30;32.30
50587;PMS7003;70782;50.514;30.816;2024-01-30T01:58:44;70.10;55.00;33.90
50587;PMS7003;70782;50.514;30.816;2024-01-30T01:59:48;33.73;25.82;3.91
50587;PMS7003;70782;50.514;30.816;2024-01-30T02:00:50;75.20;58.10;36.80
50587;PMS7003;70782;50.514;30.816;2024-01-30T02:01:54;71.30;56.20;35.40
50587;PMS7003;70782;50.514;30.816;2024-01-30T02:02:58;70.40;57.80;35.80
50587;PMS7003;70782;50.514;30.816;2024-01-30T02:04:00;75.60;58.90;37.00
50587;PMS7003;70782;50.514;30.816;2024-01-30T02:05:04;62.20;50.10;30.90
50587;PMS7003;70782;50.514;30.816;2024-01-30T02:06:07;62.10;51.40;34.10
50587;PMS7003;70782;50.514;30.816;2024-01-30T02:07:09;61.20;51.00;31.70
50587;PMS7003;70782;50.514;30.816;2024-01-30T02:08:13;61.30;49.90;32.10
50587;PMS7003;70782;50.514;30.816;2024-01-30T02:09:15;50.80;43.30;28.40
50587;PMS7003;70782;50.514;30.816;2024-01-30T02:10:19;56.60;44.40;28.50
50587;PMS7003;70782;50.514;30.816;2024-01-30T02:11:22;59.00;48.80;30.50
50587;PMS7003;70782;50.514;30.816;2024-01-30T02:12:24;57.64;47.91;30.00
50587;PMS7003;70782;50.514;30.816;2024-01-30T02:13:27;58.10;47.10;29.70
50587;PMS7003;70782;50.514;30.816;2024-01-30T02:14:29;48.50;39.90;20.40
50587;PMS7003;70782;50.514;30.816;2024-01-30T02:15:33;61.50;47.30;30.10
50587;PMS7003;70782;50.514;30.816;2024-01-30T02:16:35;56.50;44.50;29.50
50587;PMS7003;70782;50.514;30.816;2024-01-30T02:17:38;57.30;47.60;29.30
50587;PMS7003;70782;50.514;30.816;2024-01-30T02:18:40;58.70;47.80;28.60
50587;PMS7003;70782;50.514;30.816;2024-01-30T02:19:43;50.80;40.80;23.60
50587;PMS7003;70782;50.514;30.816;2024-01-30T02:20:45;60.00;48.10;30.30
50587;PMS7003;70782;50.514;30.816;2024-01-30T02:21:48;57.50;46.40;29.70
50587;PMS7003;70782;50.514;30.816;2024-01-30T02:22:51;59.80;48.00;29.90
50587;PMS7003;70782;50.514;30.816;2024-01-30T02:23:55;4.50;3.20;2.00
50587;PMS7003;70782;50.514;30.816;2024-01-30T02:24:57;56.40;45.90;30.00
50587;PMS7003;70782;50.514;30.816;2024-01-30T02:26:00;57.30;46.30;28.30
50587;PMS7003;70782;50.514;30.816;2024-01-30T02:27:02;55.30;45.40;28.20
50587;PMS7003;70782;50.514;30.816;2024-01-30T02:28:05;52.90;43.20;29.60
50587;PMS7003;70782;50.514;30.816;2024-01-30T02:29:07;55.50;46.60;28.90
50587;PMS7003;70782;50.514;30.816;2024-01-30T02:30:11;60.82;49.18;30.82
50587;PMS7003;70782;50.514;30.816;2024-01-30T02:31:14;73.90;57.60;35.30
50587;PMS7003;70782;50.514;30.816;2024-01-30T02:32:16;87.40;68.10;40.80
50587;PMS7003;70782;50.514;30.816;2024-01-30T02:33:19;99.80;85.80;49.70
50587;PMS7003;70782;50.514;30.816;2024-01-30T02:34:22;97.40;76.90;43.80
50587;PMS7003;70782;50.514;30.816;2024-01-30T02:35:25;88.30;67.70;41.80
50587;PMS7003;70782;50.514;30.816;2024-01-30T02:36:28;84.40;65.40;39.70
50587;PMS7003;70782;50.514;30.816;2024-01-30T02:37:31;76.10;59.10;35.70
50587;PMS7003;70782;50.514;30.816;2024-01-30T02:38:33;73.90;58.00;36.20
50587;PMS7003;70782;50.514;30.816;2024-01-30T02:39:36;70.20;55.70;34.00
50587;PMS7003;70782;50.514;30.816;2024-01-30T02:40:38;70.00;53.90;33.70
50587;PMS7003;70782;50.514;30.816;2024-01-30T02:41:41;68.80;54.50;34.40
50587;PMS7003;70782;50.514;30.816;2024-01-30T02:42:43;69.80;55.30;35.50
50587;PMS7003;70782;50.514;30.816;2024-01-30T02:43:46;68.30;56.30;34.60
50587;PMS7003;70782;50.514;30.816;2024-01-30T02:44:48;65.10;54.10;33.20
50587;PMS7003;70782;50.514;30.816;2024-01-30T02:45:50;65.90;54.00;34.20
50587;PMS7003;70782;50.514;30.816;2024-01-30T02:46:53;64.20;50.40;29.80
50587;PMS7003;70782;50.514;30.816;2024-01-30T02:47:56;64.00;52.30;32.50
50587;PMS7003;70782;50.514;30.816;2024-01-30T02:48:58;68.20;52.30;33.80
50587;PMS7003;70782;50.514;30.816;2024-01-30T02:50:01;66.00;52.40;33.20
50587;PMS7003;70782;50.514;30.816;2024-01-30T02:51:03;64.90;53.90;33.30
50587;PMS7003;70782;50.514;30.816;2024-01-30T02:52:06;68.20;54.40;33.70
50587;PMS7003;70782;50.514;30.816;2024-01-30T02:53:08;72.90;57.40;35.60
50587;PMS7003;70782;50.514;30.816;2024-01-30T02:54:10;70.10;56.60;34.90
50587;PMS7003;70782;50.514;30.816;2024-01-30T02:55:13;73.60;58.10;35.20
50587;PMS7003;70782;50.514;30.816;2024-01-30T02:56:16;68.70;55.50;36.30
50587;PMS7003;70782;50.514;30.816;2024-01-30T02:57:18;69.90;56.40;36.00
50587;PMS7003;70782;50.514;30.816;2024-01-30T02:58:20;73.50;56.20;36.80
50587;PMS7003;70782;50.514;30.816;2024-01-30T02:59:23;72.20;57.90;35.60
50587;PMS7003;70782;50.514;30.816;2024-01-30T03:00:25;70.20;57.20;36.10
50587;PMS7003;70782;50.514;30.816;2024-01-30T03:01:28;68.90;55.80;34.70
50587;PMS7003;70782;50.514;30.816;2024-01-30T03:02:30;74.40;59.00;36.80
50587;PMS7003;70782;50.514;30.816;2024-01-30T03:03:45;70.00;55.30;34.20
50587;PMS7003;70782;50.514;30.816;2024-01-30T03:04:47;69.20;55.70;35.70
50587;PMS7003;70782;50.514;30.816;2024-01-30T03:05:50;71.00;56.10;35.30
50587;PMS7003;70782;50.514;30.816;2024-01-30T03:06:52;66.60;54.30;34.50
50587;PMS7003;70782;50.514;30.816;2024-01-30T03:07:55;71.70;55.30;34.90
50587;PMS7003;70782;50.514;30.816;2024-01-30T03:08:57;67.10;54.50;35.00
50587;PMS7003;70782;50.514;30.816;2024-01-30T03:09:59;68.60;53.30;34.90
50587;PMS7003;70782;50.514;30.816;2024-01-30T03:11:02;73.20;56.20;35.50
50587;PMS7003;70782;50.514;30.816;2024-01-30T03:12:05;76.00;59.60;37.50
50587;PMS7003;70782;50.514;30.816;2024-01-30T03:13:09;73.80;57.80;37.20
50587;PMS7003;70782;50.514;30.816;2024-01-30T03:14:12;86.10;65.80;40.00
50587;PMS7003;70782;50.514;30.816;2024-01-30T03:15:14;123.20;110.70;53.00
50587;PMS7003;70782;50.514;30.816;2024-01-30T03:16:17;143.10;113.90;59.40
50587;PMS7003;70782;50.514;30.816;2024-01-30T03:17:19;142.90;119.40;59.60
50587;PMS7003;70782;50.514;30.816;2024-01-30T03:18:22;163.60;126.90;63.20
50587;PMS7003;70782;50.514;30.816;2024-01-30T03:19:24;140.60;103.20;33.60
50587;PMS7003;70782;50.514;30.816;2024-01-30T03:20:26;235.30;185.10;85.50
50587;PMS7003;70782;50.514;30.816;2024-01-30T03:21:29;244.70;192.20;89.70
50587;PMS7003;70782;50.514;30.816;2024-01-30T03:22:31;208.90;166.10;71.70
50587;PMS7003;70782;50.514;30.816;2024-01-30T03:23:33;225.30;174.70;81.70
50587;PMS7003;70782;50.514;30.816;2024-01-30T03:24:36;192.90;150.20;72.40
50587;PMS7003;70782;50.514;30.816;2024-01-30T03:25:38;162.80;131.70;65.90
50587;PMS7003;70782;50.514;30.816;2024-01-30T03:26:41;133.40;110.10;51.30
50587;PMS7003;70782;50.514;30.816;2024-01-30T03:27:44;98.70;78.00;43.10
50587;PMS7003;70782;50.514;30.816;2024-01-30T03:28:46;96.80;78.10;43.30
50587;PMS7003;70782;50.514;30.816;2024-01-30T03:29:48;97.30;77.00;42.80
50587;PMS7003;70782;50.514;30.816;2024-01-30T03:30:51;80.90;62.20;40.30
50587;PMS7003;70782;50.514;30.816;2024-01-30T03:31:53;75.50;58.30;36.00
50587;PMS7003;70782;50.514;30.816;2024-01-30T03:32:55;73.70;56.60;34.20
50587;PMS7003;70782;50.514;30.816;2024-01-30T03:33:58;79.40;59.60;35.90
50587;PMS7003;70782;50.514;30.816;2024-01-30T03:35:00;83.00;62.60;37.90
50587;PMS7003;70782;50.514;30.816;2024-01-30T03:36:04;79.70;61.50;36.40
50587;PMS7003;70782;50.514;30.816;2024-01-30T03:37:07;69.70;56.60;35.00
50587;PMS7003;70782;50.514;30.816;2024-01-30T03:38:09;66.80;54.80;33.30
50587;PMS7003;70782;50.514;30.816;2024-01-30T03:39:12;65.00;52.10;33.40
50587;PMS7003;70782;50.514;30.816;2024-01-30T03:40:14;64.30;51.60;30.90
50587;PMS7003;70782;50.514;30.816;2024-01-30T03:41:17;63.00;52.60;32.20
50587;PMS7003;70782;50.514;30.816;2024-01-30T03:42:19;61.70;49.70;30.20
50587;PMS7003;70782;50.514;30.816;2024-01-30T03:43:22;58.20;46.60;31.00
50587;PMS7003;70782;50.514;30.816;2024-01-30T03:44:24;61.60;49.50;30.60
50587;PMS7003;70782;50.514;30.816;2024-01-30T03:45:27;58.30;48.70;31.20
50587;PMS7003;70782;50.514;30.816;2024-01-30T03:46:29;59.70;47.90;28.90
50587;PMS7003;70782;50.514;30.816;2024-01-30T03:47:31;61.50;48.90;31.50
50587;PMS7003;70782;50.514;30.816;2024-01-30T03:48:33;59.50;47.20;30.70
50587;PMS7003;70782;50.514;30.816;2024-01-30T03:49:36;61.50;48.20;29.80
50587;PMS7003;70782;50.514;30.816;2024-01-30T03:50:38;61.80;49.10;30.20
50587;PMS7003;70782;50.514;30.816;2024-01-30T03:51:40;63.67;51.89;33.00
50587;PMS7003;70782;50.514;30.816;2024-01-30T03:52:43;66.90;54.30;34.50
50587;PMS7003;70782;50.514;30.816;2024-01-30T03:53:45;69.00;53.70;30.80
50587;PMS7003;70782;50.514;30.816;2024-01-30T03:54:47;72.60;55.60;35.60
50587;PMS7003;70782;50.514;30.816;2024-01-30T03:55:50;64.80;53.20;33.30
50587;PMS7003;70782;50.514;30.816;2024-01-30T03:56:54;63.50;50.60;32.00
50587;PMS7003;70782;50.514;30.816;2024-01-30T03:57:56;51.50;44.50;27.10
50587;PMS7003;70782;50.514;30.816;2024-01-30T03:58:58;64.40;49.90;30.80
50587;PMS7003;70782;50.514;30.816;2024-01-30T04:00:01;63.90;50.00;31.50
50587;PMS7003;70782;50.514;30.816;2024-01-30T04:01:07;62.20;50.80;30.70
50587;PMS7003;70782;50.514;30.816;2024-01-30T04:02:10;59.91;47.91;29.64
50587;PMS7003;70782;50.514;30.816;2024-01-30T04:04:23;72.70;57.50;34.90
50587;PMS7003;70782;50.514;30.816;2024-01-30T04:05:26;72.90;56.10;35.10
50587;PMS7003;70782;50.514;30.816;2024-01-30T04:06:28;77.10;57.20;35.60
50587;PMS7003;70782;50.514;30.816;2024-01-30T04:07:31;75.80;58.90;35.80
50587;PMS7003;70782;50.514;30.816;2024-01-30T04:08:33;77.50;58.90;35.90
50587;PMS7003;70782;50.514;30.816;2024-01-30T04:09:36;71.30;55.60;33.40
50587;PMS7003;70782;50.514;30.816;2024-01-30T04:10:38;67.90;54.20;31.80
50587;PMS7003;70782;50.514;30.816;2024-01-30T04:11:41;66.90;53.90;32.70
50587;PMS7003;70782;50.514;30.816;2024-01-30T04:12:44;66.27;52.36;31.91
50587;PMS7003;70782;50.514;30.816;2024-01-30T04:13:46;57.50;45.30;28.70
50587;PMS7003;70782;50.514;30.816;2024-01-30T04:14:49;56.90;45.60;28.10
50587;PMS7003;70782;50.514;30.816;2024-01-30T04:15:51;55.70;45.70;27.90
50587;PMS7003;70782;50.514;30.816;2024-01-30T04:16:54;49.20;42.60;25.90
50587;PMS7003;70782;50.514;30.816;2024-01-30T04:17:59;48.70;42.90;27.80
50587;PMS7003;70782;50.514;30.816;2024-01-30T04:19:02;52.00;42.30;26.70
50587;PMS7003;70782;50.514;30.816;2024-01-30T04:20:05;48.00;41.20;25.40
50587;PMS7003;70782;50.514;30.816;2024-01-30T04:21:08;51.90;42.50;26.20
50587;PMS7003;70782;50.514;30.816;2024-01-30T04:22:10;46.80;42.10;26.10
50587;PMS7003;70782;50.514;30.816;2024-01-30T04:23:13;52.50;43.10;27.90
50587;PMS7003;70782;50.514;30.816;2024-01-30T04:24:15;51.30;41.10;25.90
50587;PMS7003;70782;50.514;30.816;2024-01-30T04:25:19;58.10;45.90;28.70
50587;PMS7003;70782;50.514;30.816;2024-01-30T04:26:22;57.36;45.82;29.55
50587;PMS7003;70782;50.514;30.816;2024-01-30T04:27:25;58.70;47.70;27.50
50587;PMS7003;70782;50.514;30.816;2024-01-30T04:28:27;57.20;47.20;30.50
50587;PMS7003;70782;50.514;30.816;2024-01-30T04:29:30;64.10;53.10;33.60
50587;PMS7003;70782;50.514;30.816;2024-01-30T04:30:32;63.10;47.80;29.70
50587;PMS7003;70782;50.514;30.816;2024-01-30T04:31:36;65.80;53.60;34.40
50587;PMS7003;70782;50.514;30.816;2024-01-30T04:32:38;69.70;54.60;34.00
50587;PMS7003;70782;50.514;30.816;2024-01-30T04:33:41;69.30;53.10;32.30
50587;PMS7003;70782;50.514;30.816;2024-01-30T04:34:44;70.70;58.30;35.30
50587;PMS7003;70782;50.514;30.816;2024-01-30T04:35:46;74.60;57.90;36.70
50587;PMS7003;70782;50.514;30.816;2024-01-30T04:36:49;73.40;57.80;36.00
50587;PMS7003;70782;50.514;30.816;2024-01-30T04:37:52;68.20;55.10;35.10
50587;PMS7003;70782;50.514;30.816;2024-01-30T04:38:54;72.10;58.20;36.80
50587;PMS7003;70782;50.514;30.816;2024-01-30T04:39:57;72.80;57.70;36.50
50587;PMS7003;70782;50.514;30.816;2024-01-30T04:40:59;71.80;58.00;36.70
50587;PMS7003;70782;50.514;30.816;2024-01-30T04:42:01;65.30;55.70;35.50
50587;PMS7003;70782;50.514;30.816;2024-01-30T04:43:06;73.30;58.10;36.30
50587;PMS7003;70782;50.514;30.816;2024-01-30T04:44:08;74.00;59.70;37.60
50587;PMS7003;70782;50.514;30.816;2024-01-30T04:45:11;75.50;58.70;35.40
50587;PMS7003;70782;50.514;30.816;2024-01-30T04:46:14;79.40;60.70;38.10
50587;PMS7003;70782;50.514;30.816;2024-01-30T04:47:16;86.50;65.20;40.30
50587;PMS7003;70782;50.514;30.816;2024-01-30T04:48:19;91.60;70.10;44.60
50587;PMS7003;70782;50.514;30.816;2024-01-30T04:49:21;89.70;68.60;42.70
50587;PMS7003;70782;50.514;30.816;2024-01-30T04:50:24;81.82;63.82;40.27
50587;PMS7003;70782;50.514;30.816;2024-01-30T04:51:26;86.00;66.60;40.00
50587;PMS7003;70782;50.514;30.816;2024-01-30T04:52:28;81.00;64.10;40.10
50587;PMS7003;70782;50.514;30.816;2024-01-30T04:53:31;80.70;62.00;37.80
50587;PMS7003;70782;50.514;30.816;2024-01-30T04:54:34;78.40;58.70;36.60
50587;PMS7003;70782;50.514;30.816;2024-01-30T04:55:39;66.40;53.70;30.60
50587;PMS7003;70782;50.514;30.816;2024-01-30T04:56:41;73.30;56.60;34.80
50587;PMS7003;70782;50.514;30.816;2024-01-30T04:57:44;74.00;57.80;34.70
50587;PMS7003;70782;50.514;30.816;2024-01-30T04:58:46;75.20;59.00;35.40
50587;PMS7003;70782;50.514;30.816;2024-01-30T04:59:48;75.70;59.00;37.00
50587;PMS7003;70782;50.514;30.816;2024-01-30T05:00:51;75.00;60.50;37.70
50587;PMS7003;70782;50.514;30.816;2024-01-30T05:01:54;81.18;62.36;37.09
50587;PMS7003;70782;50.514;30.816;2024-01-30T05:02:57;79.50;62.00;36.70
50587;PMS7003;70782;50.514;30.816;2024-01-30T05:03:59;85.30;65.10;39.60
50587;PMS7003;70782;50.514;30.816;2024-01-30T05:05:02;81.60;62.70;38.30
50587;PMS7003;70782;50.514;30.816;2024-01-30T05:06:05;80.00;63.20;38.60
50587;PMS7003;70782;50.514;30.816;2024-01-30T05:07:08;80.60;62.80;39.60
50587;PMS7003;70782;50.514;30.816;2024-01-30T05:08:10;60.80;49.90;34.10
50587;PMS7003;70782;50.514;30.816;2024-01-30T05:09:12;84.00;63.50;38.80
50587;PMS7003;70782;50.514;30.816;2024-01-30T05:10:16;79.40;62.20;38.80
50587;PMS7003;70782;50.514;30.816;2024-01-30T05:11:18;77.10;58.90;34.10
50587;PMS7003;70782;50.514;30.816;2024-01-30T05:12:20;80.20;63.30;39.00
50587;PMS7003;70782;50.514;30.816;2024-01-30T05:13:22;106.78;86.44;45.67
50587;PMS7003;70782;50.514;30.816;2024-01-30T05:14:25;159.00;126.70;58.20
50587;PMS7003;70782;50.514;30.816;2024-01-30T05:15:27;153.33;123.22;59.44
50587;PMS7003;70782;50.514;30.816;2024-01-30T05:16:30;137.20;115.40;56.60
50587;PMS7003;70782;50.514;30.816;2024-01-30T05:17:32;107.40;89.40;45.70
50587;PMS7003;70782;50.514;30.816;2024-01-30T05:18:35;104.20;85.60;45.20
50587;PMS7003;70782;50.514;30.816;2024-01-30T05:19:38;96.50;77.30;42.60
50587;PMS7003;70782;50.514;30.816;2024-01-30T05:20:41;93.40;73.60;42.90
50587;PMS7003;70782;50.514;30.816;2024-01-30T05:21:43;93.10;75.00;43.10
50587;PMS7003;70782;50.514;30.816;2024-01-30T05:22:45;87.40;66.20;38.30
50587;PMS7003;70782;50.514;30.816;2024-01-30T05:23:48;88.60;65.60;39.90
50587;PMS7003;70782;50.514;30.816;2024-01-30T05:24:50;85.20;65.10;39.70
50587;PMS7003;70782;50.514;30.816;2024-01-30T05:25:53;85.60;65.40;39.20
50587;PMS7003;70782;50.514;30.816;2024-01-30T05:26:55;88.30;66.20;39.60
50587;PMS7003;70782;50.514;30.816;2024-01-30T05:27:58;90.80;70.30;40.80
50587;PMS7003;70782;50.514;30.816;2024-01-30T05:29:00;87.50;66.80;39.40
50587;PMS7003;70782;50.514;30.816;2024-01-30T05:30:03;83.50;65.20;39.50
50587;PMS7003;70782;50.514;30.816;2024-01-30T05:31:07;88.80;67.10;38.90
50587;PMS7003;70782;50.514;30.816;2024-01-30T05:32:10;84.40;63.30;37.20
50587;PMS7003;70782;50.514;30.816;2024-01-30T05:33:12;86.80;65.30;37.70
50587;PMS7003;70782;50.514;30.816;2024-01-30T05:34:15;77.10;60.00;36.20
50587;PMS7003;70782;50.514;30.816;2024-01-30T05:35:18;81.91;62.36;37.45
50587;PMS7003;70782;50.514;30.816;2024-01-30T05:36:20;79.00;59.80;35.40
50587;PMS7003;70782;50.514;30.816;2024-01-30T05:37:23;75.90;59.10;35.90
50587;PMS7003;70782;50.514;30.816;2024-01-30T05:38:25;84.50;65.50;39.40
50587;PMS7003;70782;50.514;30.816;2024-01-30T05:39:30;86.80;65.70;40.10
50587;PMS7003;70782;50.514;30.816;2024-01-30T05:40:32;89.30;68.40;39.80
50587;PMS7003;70782;50.514;30.816;2024-01-30T05:41:35;94.60;72.90;42.50
50587;PMS7003;70782;50.514;30.816;2024-01-30T05:42:37;98.60;79.70;44.70
50587;PMS7003;70782;50.514;30.816;2024-01-30T05:43:40;95.80;79.30;44.30
50587;PMS7003;70782;50.514;30.816;2024-01-30T05:44:50;89.40;76.40;41.30
50587;PMS7003;70782;50.514;30.816;2024-01-30T05:45:52;90.90;68.10;40.00
50587;PMS7003;70782;50.514;30.816;2024-01-30T05:46:55;82.10;63.60;38.50
50587;PMS7003;70782;50.514;30.816;2024-01-30T05:47:57;86.70;66.30;39.00
50587;PMS7003;70782;50.514;30.816;2024-01-30T05:49:00;90.40;71.50;42.50